MST,Max TemperatureF,Mean TemperatureF,Min TemperatureF,Max Dew PointF,MeanDew PointF,Min DewpointF,Max Humidity, Mean Humidity, Min Humidity, Max Sea Level PressureIn, Mean Sea Level PressureIn, Min Sea Level PressureIn, Max VisibilityMiles, Mean VisibilityMiles, Min VisibilityMiles, Max Wind SpeedMPH, Mean Wind SpeedMPH, Max Gust SpeedMPH,PrecipitationIn, CloudCover, Events, WindDirDegrees
2012-11-1,66,56,45,29,24,22,42,28,13,30.03,29.96,29.90,10,10,10,5,2,,0.00,0,,254
2012-11-2,69,58,48,23,20,17,33,24,6,30.01,29.96,29.90,10,10,10,6,3,,0.00,0,,253
2012-11-3,68,56,43,25,20,17,38,26,8,30.14,30.08,30.00,10,10,10,6,1,,0.00,0,,279
2012-11-4,68,56,43,26,23,21,47,28,9,30.27,30.21,30.14,10,10,9,7,3,,0.00,0,,273
2012-11-5,70,58,45,29,25,20,44,29,11,30.31,30.22,30.14,10,10,7,5,2,,0.00,0,,277
2012-11-6,70,58,45,31,28,26,48,34,14,30.25,30.17,30.11,10,10,9,5,2,,0.00,0,,292
2012-11-7,69,56,44,29,26,24,48,31,13,30.13,30.02,29.90,10,10,10,6,2,,0.00,0,,240
2012-11-8,69,56,44,40,28,15,55,32,8,30.00,29.79,29.69,10,10,9,23,3,33,0.00,2,,196
2012-11-9,68,56,44,41,34,22,58,42,18,29.69,29.57,29.45,10,10,4,22,16,39,0.00,5,,202
2012-11-10,48,42,34,18,13,4,48,31,13,29.97,29.78,29.59,10,10,10,13,7,23,0.00,2,,268
2012-11-11,45,38,30,17,10,1,55,33,9,30.42,30.23,29.99,10,10,7,13,4,22,0.00,0,,293
2012-11-12,48,38,27,14,11,8,58,33,11,30.51,30.41,30.34,10,9,2,6,2,,0.00,0,,71
2012-11-13,51,40,28,14,11,8,48,31,10,30.40,30.34,30.28,10,9,2,5,1,,0.00,0,,359
2012-11-14,54,42,30,16,12,8,43,30,13,30.36,30.27,30.18,10,10,4,6,1,,0.00,0,,124
2012-11-15,53,42,32,20,17,13,52,34,15,30.33,30.25,30.21,10,9,5,5,2,,0.00,0,,291
2012-11-16,57,50,43,24,21,19,42,31,16,30.19,30.12,30.06,10,10,7,5,1,,0.00,6,,5
2012-11-17,64,54,44,32,28,22,47,36,21,30.10,30.02,29.94,10,10,9,7,2,,0.00,5,,292
2012-11-18,63,54,46,37,34,30,63,48,24,30.16,30.04,29.98,10,10,8,7,4,,0.00,2,,158
2012-11-19,61,50,39,34,32,28,70,50,27,30.27,30.21,30.12,10,10,7,6,1,,0.00,0,,18
2012-11-20,60,48,37,31,28,24,68,45,17,30.29,30.19,30.12,10,10,7,5,2,,0.00,0,,314
2012-11-21,59,48,37,26,24,23,55,39,17,30.17,30.08,30.01,10,8,3,6,3,,0.00,0,,248
2012-11-22,61,49,37,25,23,21,53,36,17,30.30,30.18,30.05,10,10,9,6,2,,0.00,0,,241
2012-11-23,60,48,37,26,24,23,57,39,17,30.42,30.34,30.30,10,10,6,6,1,,0.00,0,,343
2012-11-24,57,46,34,24,21,19,52,38,15,30.33,30.21,30.08,10,9,2,5,1,,0.00,0,,286
2012-11-25,57,46,34,24,22,20,53,38,16,30.06,29.99,29.88,10,10,5,5,1,,0.00,0,,355
2012-11-26,60,48,37,27,23,18,53,37,16,30.21,30.10,29.97,10,10,6,5,1,,0.00,0,,292
2012-11-27,55,45,35,22,20,18,50,36,18,30.33,30.26,30.21,10,9,6,6,3,,0.00,0,,271
2012-11-28,55,45,35,22,20,19,54,36,14,30.30,30.19,30.09,10,9,5,6,1,,0.00,0,,318
2012-11-29,60,48,37,28,25,21,53,39,20,30.22,30.12,30.06,10,10,7,5,2,,0.00,0,,254
2012-11-30,54,46,39,36,32,27,67,55,37,30.12,30.05,30.01,10,9,6,5,2,,0.00,0,,229